Glendora, CA (91741)

5:23 PM PDT on October 01, 2014 (GMT -0700)
Historic District | Change Station
CLOSE
Current Station
Personal Weather Station
Location: Glendora, CA
Elevation: 768 ft
Nearby Weather Stations
Active Advisory: Special Statement

Elev 768 ft 34.13 °N, 117.86 °W | Updated 3 seconds ago

Clear
Clear
86.7 °F
Feels Like 83 °F
N
6.0
Wind Variable Wind from West
Gusts 6.0 mph

Today
High -- | Low -- °F
--% Chance of Precip.
Yesterday
High -- | Low -- °F
Precip. -- in
6:46 AM 6:35 PM
First Quarter, 52% visible
Pressure 29.80 in
Visibility 10.0 miles
Clouds Clear
Heat Index 83 °F
Dew Point 18 °F
Humidity 8%
Rainfall 0.00 in
Snow Depth 0 in , 1 in , 0 in
UV 2 out of 12
Pollen 5.50 out of 12
Ozone Good
PM2.5 Moderate
Flu Activity Not available.
METAR KPOC 302347Z AUTO 25010KT 10SM CLR 29/06 A2980

More Conditions Fewer Conditions

Pressure 29.80 in
Visibility 10.0 miles
Clouds Clear
Heat Index 83 °F
Dew Point 18 °F
Humidity 8%
Rainfall 0.00 in
Snow Depth 0 in , 1 in , 0 in
UV 2 out of 12
Pollen 5.50 out of 12
Ozone Good
PM2.5 Moderate
Flu Activity Not available.
METAR KPOC 302347Z AUTO 25010KT 10SM CLR 29/06 A2980

More Conditions Fewer Conditions

10-Day Weather Forecast

Almanac

Astronomy

Oct. 01, 2014 Rise Set
Actual Time 6:46 AM PDT 6:35 PM PDT
Civil Twilight 6:21 AM PDT 7:00 PM PDT
Nautical Twilight 5:51 AM PDT 7:29 PM PDT
Astronomical Twilight 5:22 AM PDT 7:58 PM PDT
Moon 1:39 PM PDT (10/1) No Moon Set
Length of Visible Light 12h 39m
Length of Day
11h 49m
Tomorrow will be 2m 5s shorter.
First Quarter, 52% of the Moon is Illuminated
Today
First Quarter
Oct 8
Full
Oct 15
Last Quarter
Oct 23
New
Oct 30
First Quarter

Today's Extremes

State Highs State Lows

Community

WunderPhotos

Upload Photos

1,758,097 photos uploaded!

WunderBlogs® & News

Nearby

Air Quality

  Air Quality AQ Index Pollutant
Yesterday Moderate
OZONE
Yesterday Good
PM10
Current Moderate
PM2.5
Current Good
OZONE
Thursday Moderate
OZONE
Thursday Good
PM10
Thursday Good
CO
Thursday Good
NO2

Snow Depth

Station Depth Elevation
Spratt Creek 0 in 6200 ft
CSS Lab 1 in 6900 ft
Burnside Lake 0 in 8139 ft
Adin Mountain 0 in 6200 ft

Earthquake Activity

City Distance Mag. Time & Date
Avalon, California 73 miles 2.6 1:28 PM PDT
2014-09-30
Minimum magnitude displayed is 2.5.

Coastal Water Temperatures

Place Temperature
No Stations Reporting

Nearby Weather Stations